createdAt,value
2017-12-05T00:00:52.750Z,58.60
2017-12-05T00:03:28.866Z,58.30
2017-12-05T00:06:00.325Z,59.30
2017-12-05T00:08:32.642Z,60.20
2017-12-05T00:11:02.469Z,60.00
2017-12-05T00:13:36.374Z,58.70
2017-12-05T00:16:07.313Z,57.70
2017-12-05T00:18:39.802Z,58.70
2017-12-05T00:21:13.255Z,58.90
2017-12-05T00:23:58.528Z,60.00
2017-12-05T00:26:32.934Z,60.50
2017-12-05T00:29:06.412Z,60.50
2017-12-05T00:31:40.254Z,58.90
2017-12-05T00:34:12.381Z,58.80
2017-12-05T00:36:44.630Z,58.40
2017-12-05T00:39:14.706Z,57.50
2017-12-05T00:41:46.322Z,59.60
2017-12-05T00:44:18.359Z,58.80
2017-12-05T00:46:53.557Z,57.50
2017-12-05T00:49:23.431Z,58.60
2017-12-05T00:51:57.593Z,59.90
2017-12-05T00:54:35.472Z,59.80
2017-12-05T00:57:07.371Z,61.10
2017-12-05T00:59:38.780Z,61.10
2017-12-05T01:02:09.433Z,62.00
2017-12-05T01:04:43.256Z,60.60
2017-12-05T01:07:13.859Z,58.50
2017-12-05T01:09:49.367Z,57.70
2017-12-05T01:12:21.401Z,58.20
2017-12-05T01:14:59.443Z,57.70
2017-12-05T01:17:31.949Z,60.50
2017-12-05T01:20:07.701Z,59.70
2017-12-05T01:22:37.440Z,59.70
2017-12-05T01:25:14.134Z,58.30
2017-12-05T01:27:47.775Z,58.40
2017-12-05T01:30:18.043Z,57.60
2017-12-05T01:32:49.594Z,56.60
2017-12-05T01:35:26.467Z,56.20
2017-12-05T01:37:59.390Z,55.60
2017-12-05T01:40:31.610Z,58.00
2017-12-05T01:43:03.309Z,58.50
2017-12-05T01:45:42.170Z,57.40
2017-12-05T01:48:16.502Z,56.20
2017-12-05T01:50:48.277Z,56.30
2017-12-05T01:53:22.319Z,57.10
2017-12-05T01:55:53.611Z,56.90
2017-12-05T01:58:24.732Z,57.70
2017-12-05T02:00:55.259Z,59.20
2017-12-05T02:03:28.392Z,58.80
2017-12-05T02:06:09.200Z,59.10
2017-12-05T02:08:41.788Z,58.20
2017-12-05T02:11:14.660Z,57.80
2017-12-05T02:13:46.156Z,57.80
2017-12-05T02:16:18.107Z,59.50
2017-12-05T02:18:50.428Z,58.50
2017-12-05T02:21:28.810Z,57.50
2017-12-05T02:23:59.619Z,58.10
2017-12-05T02:26:32.794Z,57.50
2017-12-05T02:29:04.469Z,57.80
2017-12-05T02:31:37.541Z,57.00
2017-12-05T02:34:09.653Z,56.50
2017-12-05T02:36:41.245Z,57.20
2017-12-05T02:39:12.391Z,56.90
2017-12-05T02:41:45.777Z,61.20
2017-12-05T02:44:16.930Z,61.10
2017-12-05T02:46:54.581Z,62.10
2017-12-05T02:49:28.006Z,61.20
2017-12-05T02:52:00.834Z,60.50
2017-12-05T02:54:33.381Z,59.30
2017-12-05T02:57:06.861Z,58.70
2017-12-05T02:59:39.328Z,58.10
2017-12-05T03:02:14.329Z,57.50
2017-12-05T03:04:46.120Z,56.50
2017-12-05T03:07:18.979Z,56.50
2017-12-05T03:09:51.652Z,58.00
2017-12-05T03:12:25.361Z,58.00
2017-12-05T03:14:56.456Z,58.00
2017-12-05T03:17:28.499Z,57.30
2017-12-05T03:19:58.790Z,57.60
2017-12-05T03:22:31.337Z,59.20
2017-12-05T03:25:02.110Z,59.10
2017-12-05T03:27:33.605Z,58.50
2017-12-05T03:30:05.920Z,59.20
2017-12-05T03:32:39.905Z,58.50
2017-12-05T03:35:22.370Z,59.40
2017-12-05T03:37:57.379Z,57.50
2017-12-05T03:40:32.509Z,57.50
2017-12-05T03:43:04.268Z,57.00
2017-12-05T03:45:44.969Z,57.00
2017-12-05T03:48:17.820Z,58.40
2017-12-05T03:50:49.580Z,58.50
2017-12-05T03:53:22.680Z,59.20
2017-12-05T03:55:57.790Z,58.50
2017-12-05T03:58:29.248Z,59.80
2017-12-05T04:01:02.152Z,60.60
2017-12-05T04:03:35.353Z,59.40
2017-12-05T04:06:07.160Z,60.40
2017-12-05T04:08:36.684Z,59.70
2017-12-05T04:11:06.231Z,59.50
2017-12-05T04:13:37.268Z,59.00
2017-12-05T04:16:07.378Z,58.20
2017-12-05T04:18:39.968Z,57.50
2017-12-05T04:21:10.351Z,57.50
2017-12-05T04:23:42.230Z,58.40
2017-12-05T04:26:20.451Z,58.40
2017-12-05T04:28:50.361Z,57.50
2017-12-05T04:31:20.469Z,56.80
2017-12-05T04:33:50.351Z,56.90
2017-12-05T04:36:21.095Z,56.80
2017-12-05T04:38:52.532Z,56.70
2017-12-05T04:41:24.708Z,57.10
2017-12-05T04:43:54.707Z,57.10
2017-12-05T04:46:26.469Z,58.40
2017-12-05T04:48:56.227Z,58.30
2017-12-05T04:51:26.489Z,57.10
2017-12-05T04:53:57.431Z,56.50
2017-12-05T04:56:27.393Z,56.50
2017-12-05T04:58:57.284Z,57.20
2017-12-05T05:01:27.076Z,57.20
2017-12-05T05:03:56.636Z,56.70
2017-12-05T05:06:30.368Z,56.10
2017-12-05T05:09:00.339Z,56.70
2017-12-05T05:11:31.904Z,57.90
2017-12-05T05:14:02.728Z,58.30
2017-12-05T05:16:34.458Z,57.60
2017-12-05T05:19:05.294Z,56.90
2017-12-05T05:21:35.749Z,57.50
2017-12-05T05:24:24.312Z,57.70
2017-12-05T05:26:54.203Z,57.30
2017-12-05T05:29:25.441Z,57.40
2017-12-05T05:32:01.626Z,56.80
2017-12-05T05:34:33.090Z,56.70
2017-12-05T05:37:23.195Z,58.30
2017-12-05T05:40:02.862Z,58.30
2017-12-05T05:42:36.289Z,58.80
2017-12-05T05:45:10.558Z,58.00
2017-12-05T05:47:41.344Z,57.80
2017-12-05T05:50:14.017Z,58.50
2017-12-05T05:52:46.465Z,58.40
2017-12-05T05:55:23.375Z,57.60
2017-12-05T05:57:54.861Z,57.90
2017-12-05T06:00:29.176Z,57.00
2017-12-05T06:03:04.350Z,56.60
2017-12-05T06:05:36.260Z,56.60
2017-12-05T06:08:08.684Z,56.70
2017-12-05T06:10:39.982Z,56.20
2017-12-05T06:13:11.714Z,57.10
2017-12-05T06:15:59.175Z,56.60
2017-12-05T06:18:52.648Z,55.90
2017-12-05T06:21:29.386Z,56.00
2017-12-05T06:24:01.637Z,56.40
2017-12-05T06:26:34.804Z,58.20
2017-12-05T06:29:06.760Z,57.80
2017-12-05T06:31:39.315Z,57.70
2017-12-05T06:34:09.107Z,59.00
2017-12-05T06:36:41.779Z,59.90
2017-12-05T06:39:12.037Z,59.20
2017-12-05T06:41:44.413Z,59.60
2017-12-05T06:44:16.846Z,59.60
2017-12-05T06:46:48.229Z,61.60
2017-12-05T06:49:18.684Z,61.80
2017-12-05T06:51:48.116Z,59.80
2017-12-05T06:54:20.180Z,58.20
2017-12-05T06:56:50.275Z,57.80
2017-12-05T06:59:22.287Z,58.40
2017-12-05T07:01:53.174Z,58.40
2017-12-05T07:04:24.132Z,58.40
2017-12-05T07:06:54.456Z,58.40
2017-12-05T07:09:26.072Z,58.30
2017-12-05T07:11:57.211Z,58.30
2017-12-05T07:14:27.446Z,58.50
2017-12-05T07:16:58.064Z,57.80
2017-12-05T07:19:28.671Z,57.70
2017-12-05T07:21:59.665Z,58.00
2017-12-05T07:24:30.375Z,57.90
2017-12-05T07:27:00.558Z,58.00
2017-12-05T07:29:31.395Z,58.30
2017-12-05T07:32:02.283Z,57.70
2017-12-05T07:34:35.387Z,57.70
2017-12-05T07:37:07.065Z,57.70
2017-12-05T07:39:37.242Z,56.80
2017-12-05T07:42:11.201Z,57.50
2017-12-05T07:44:46.038Z,56.90
2017-12-05T07:47:16.214Z,56.20
2017-12-05T07:49:47.099Z,56.30
2017-12-05T07:52:17.577Z,56.50
2017-12-05T07:54:51.692Z,57.30
2017-12-05T07:57:21.780Z,58.20
2017-12-05T07:59:55.276Z,58.10
2017-12-05T08:02:26.456Z,58.30
2017-12-05T08:04:56.268Z,58.30
2017-12-05T08:07:30.542Z,57.10
2017-12-05T08:10:11.277Z,57.10
2017-12-05T08:12:42.636Z,58.00
2017-12-05T08:15:14.287Z,58.00
2017-12-05T08:17:46.575Z,58.00
2017-12-05T08:20:17.317Z,58.00
2017-12-05T08:22:47.891Z,58.50
2017-12-05T08:25:18.127Z,58.70
2017-12-05T08:27:48.472Z,58.90
2017-12-05T08:30:19.418Z,58.90
2017-12-05T08:32:49.425Z,59.80
2017-12-05T08:35:19.090Z,58.60
2017-12-05T08:37:50.380Z,59.00
2017-12-05T08:40:21.700Z,57.10
2017-12-05T08:42:52.480Z,57.10
2017-12-05T08:45:22.632Z,56.70
2017-12-05T08:47:57.776Z,55.90
2017-12-05T08:50:28.200Z,55.70
2017-12-05T08:53:01.174Z,55.60
2017-12-05T08:55:31.382Z,55.10
2017-12-05T08:58:01.047Z,55.20
2017-12-05T09:00:31.111Z,55.10
2017-12-05T09:03:00.976Z,54.40
2017-12-05T09:05:34.681Z,55.10
2017-12-05T09:08:04.643Z,54.80
2017-12-05T09:10:36.204Z,54.20
2017-12-05T09:13:07.155Z,54.80
2017-12-05T09:15:37.205Z,54.00
2017-12-05T09:18:08.240Z,55.00
2017-12-05T09:20:38.455Z,54.80
2017-12-05T09:23:09.685Z,54.80
2017-12-05T09:25:40.244Z,54.80
2017-12-05T09:28:10.314Z,54.20
2017-12-05T09:30:46.474Z,54.30
2017-12-05T09:33:16.375Z,53.50
2017-12-05T09:35:46.086Z,52.70
2017-12-05T09:38:17.625Z,52.90
2017-12-05T09:40:48.416Z,53.90
2017-12-05T09:43:19.761Z,53.00
2017-12-05T09:45:51.080Z,53.60
2017-12-05T09:48:25.306Z,52.80
2017-12-05T09:50:55.098Z,52.70
2017-12-05T09:53:24.700Z,52.40
2017-12-05T09:55:56.140Z,52.70
2017-12-05T09:58:26.400Z,52.60
2017-12-05T10:00:58.730Z,52.40
2017-12-05T10:03:28.230Z,51.80
2017-12-05T10:05:58.064Z,51.20
2017-12-05T10:08:28.723Z,50.70
2017-12-05T10:10:59.041Z,50.30
2017-12-05T10:13:29.145Z,50.80
2017-12-05T10:15:59.676Z,50.50
2017-12-05T10:18:29.255Z,50.00
2017-12-05T10:20:59.449Z,49.20
2017-12-05T10:23:29.695Z,48.80
2017-12-05T10:26:00.951Z,47.10
2017-12-05T10:28:32.727Z,47.10
2017-12-05T10:31:04.335Z,48.00
2017-12-05T10:33:37.063Z,47.90
2017-12-05T10:36:07.056Z,47.80
2017-12-05T10:38:37.197Z,47.50
2017-12-05T10:41:08.592Z,47.00
2017-12-05T10:46:17.759Z,45.60
2017-12-05T10:48:48.308Z,46.30
2017-12-05T10:51:18.200Z,46.90
2017-12-05T10:53:48.315Z,45.50
2017-12-05T10:56:18.450Z,46.20
2017-12-05T10:58:55.631Z,46.10
2017-12-05T11:01:28.476Z,46.70
2017-12-05T11:04:00.452Z,46.60
2017-12-05T11:06:31.614Z,45.70
2017-12-05T11:09:01.400Z,45.60
2017-12-05T11:11:32.101Z,46.40
2017-12-05T11:14:03.429Z,46.40
2017-12-05T11:16:34.525Z,45.70
2017-12-05T11:19:05.124Z,45.50
2017-12-05T11:21:40.417Z,45.80
2017-12-05T11:24:10.367Z,45.80
2017-12-05T11:26:42.367Z,45.80
2017-12-05T11:29:12.180Z,44.50
2017-12-05T11:31:42.140Z,44.60
2017-12-05T11:34:14.741Z,45.00
2017-12-05T11:36:48.130Z,44.80
2017-12-05T11:39:18.316Z,45.20
2017-12-05T11:41:48.795Z,46.60
2017-12-05T11:44:20.460Z,46.30
2017-12-05T11:46:50.278Z,45.80
2017-12-05T11:49:20.744Z,45.30
2017-12-05T11:51:50.452Z,44.50
2017-12-05T11:54:28.602Z,43.70
2017-12-05T11:56:58.156Z,43.70
2017-12-05T11:59:28.337Z,44.30
2017-12-05T12:01:59.163Z,44.00
2017-12-05T12:04:29.416Z,44.20
2017-12-05T12:06:59.462Z,44.90
2017-12-05T12:09:29.357Z,45.00
2017-12-05T12:12:00.626Z,42.90
2017-12-05T12:14:30.332Z,42.90
2017-12-05T12:17:00.239Z,43.30
2017-12-05T12:19:34.241Z,42.40
2017-12-05T12:22:04.822Z,42.40
2017-12-05T12:24:35.051Z,43.10
2017-12-05T12:27:06.795Z,42.30
2017-12-05T12:29:36.723Z,42.00
2017-12-05T12:32:08.096Z,40.80
2017-12-05T12:34:40.318Z,41.90
2017-12-05T12:37:11.287Z,42.10
2017-12-05T22:33:01.770Z,47.30
2017-12-05T22:35:33.552Z,47.90
2017-12-05T22:38:04.698Z,49.00
2017-12-05T22:40:36.402Z,49.80
2017-12-05T22:43:07.633Z,50.80
2017-12-05T22:45:40.177Z,50.30
2017-12-05T22:48:13.422Z,50.00
2017-12-05T22:50:44.604Z,49.60
2017-12-05T22:53:16.743Z,49.70
2017-12-05T22:55:48.362Z,51.10
2017-12-05T22:58:20.458Z,51.60
2017-12-05T23:01:03.264Z,51.50
2017-12-05T23:03:36.428Z,53.40
2017-12-05T23:06:14.969Z,52.40
2017-12-05T23:08:53.004Z,51.80
2017-12-05T23:11:28.134Z,51.80
2017-12-05T23:14:00.649Z,51.50
2017-12-05T23:16:32.198Z,51.40
2017-12-05T23:19:07.625Z,51.70
2017-12-05T23:21:42.358Z,51.70
2017-12-05T23:24:17.763Z,52.20
2017-12-05T23:26:55.607Z,53.00
2017-12-05T23:29:35.552Z,53.00
2017-12-05T23:32:08.438Z,52.20
2017-12-05T23:34:45.920Z,51.80
2017-12-05T23:37:27.467Z,51.50
2017-12-05T23:40:00.420Z,51.50
2017-12-05T23:42:37.180Z,52.40
2017-12-05T23:45:13.647Z,53.90
